createdAt,value
2022-08-19T00:02:00.728Z,49.72
2022-08-19T00:04:32.917Z,49.45
2022-08-19T00:07:04.664Z,49.70
2022-08-19T00:09:35.179Z,49.36
2022-08-19T00:12:02.996Z,49.46
2022-08-19T00:14:32.986Z,49.44
2022-08-19T00:17:01.404Z,49.60
2022-08-19T00:19:28.706Z,49.20
2022-08-19T00:21:57.418Z,49.13
2022-08-19T00:24:26.260Z,49.00
2022-08-19T00:26:53.515Z,48.90
2022-08-19T00:29:26.040Z,48.85
2022-08-19T00:31:55.682Z,48.71
2022-08-19T00:34:23.888Z,48.71
2022-08-19T00:36:50.970Z,48.58
2022-08-19T00:39:18.292Z,48.20
2022-08-19T00:41:49.895Z,48.26
2022-08-19T00:44:21.262Z,48.29
2022-08-19T00:46:58.119Z,48.31
2022-08-19T00:49:45.786Z,48.21
2022-08-19T00:52:16.457Z,47.85
2022-08-19T00:54:50.754Z,48.18
2022-08-19T00:57:36.250Z,47.73
2022-08-19T01:00:13.169Z,47.70
2022-08-19T01:02:42.227Z,47.79
2022-08-19T01:05:20.281Z,48.29
2022-08-19T01:07:49.474Z,48.74
2022-08-19T01:10:20.024Z,48.50
2022-08-19T01:12:48.801Z,47.75
2022-08-19T01:15:21.434Z,47.34
2022-08-19T01:17:49.649Z,48.13
2022-08-19T01:20:23.785Z,47.76
2022-08-19T01:22:58.293Z,48.65
2022-08-19T01:25:40.608Z,47.67
2022-08-19T01:28:10.925Z,48.49
2022-08-19T01:30:39.028Z,49.05
2022-08-19T01:33:12.165Z,49.57
2022-08-19T01:35:39.961Z,49.24
2022-08-19T01:38:20.461Z,50.46
2022-08-19T01:40:48.181Z,50.18
2022-08-19T01:43:22.343Z,50.60
2022-08-19T01:45:49.592Z,50.65
2022-08-19T01:48:17.990Z,50.81
2022-08-19T01:50:45.216Z,51.22
2022-08-19T01:53:13.313Z,51.34
2022-08-19T01:55:44.470Z,51.24
2022-08-19T01:58:20.120Z,51.42
2022-08-19T02:00:49.396Z,51.20
2022-08-19T02:03:18.086Z,51.24
2022-08-19T02:05:47.304Z,51.26
2022-08-19T02:08:15.043Z,51.66
2022-08-19T02:10:45.261Z,51.68
2022-08-19T02:13:14.998Z,51.51
2022-08-19T02:15:42.703Z,52.25
2022-08-19T02:18:12.340Z,52.29
2022-08-19T02:20:40.871Z,52.95
2022-08-19T02:23:14.006Z,52.25
2022-08-19T02:25:48.455Z,51.72
2022-08-19T02:28:19.457Z,51.65
2022-08-19T02:30:49.502Z,52.42
2022-08-19T02:33:17.430Z,52.06
2022-08-19T02:35:48.402Z,52.03
2022-08-19T02:38:28.662Z,51.84
2022-08-19T02:41:02.297Z,52.17
2022-08-19T02:43:33.904Z,52.22
2022-08-19T02:46:02.309Z,52.37
2022-08-19T02:48:29.766Z,52.47
2022-08-19T02:50:57.298Z,52.59
2022-08-19T02:53:27.784Z,52.83
2022-08-19T02:55:55.570Z,53.10
2022-08-19T02:58:28.123Z,52.86
2022-08-19T03:00:57.900Z,53.01
2022-08-19T03:03:25.155Z,53.52
2022-08-19T03:05:56.804Z,53.28
2022-08-19T03:08:26.247Z,53.27
2022-08-19T03:10:54.220Z,53.14
2022-08-19T03:13:21.712Z,52.80
2022-08-19T03:15:49.142Z,52.97
2022-08-19T03:18:18.147Z,53.20
2022-08-19T03:20:47.607Z,53.16
2022-08-19T03:23:16.498Z,53.31
2022-08-19T03:25:47.591Z,52.88
2022-08-19T03:28:30.763Z,52.99
2022-08-19T03:31:43.871Z,52.90
2022-08-19T03:34:01.452Z,52.56
2022-08-19T03:36:29.537Z,52.88
2022-08-19T03:38:59.605Z,52.11
2022-08-19T03:41:44.218Z,52.34
2022-08-19T03:44:18.549Z,52.16
2022-08-19T03:46:48.206Z,52.80
2022-08-19T03:49:15.895Z,53.17
2022-08-19T03:51:46.889Z,52.49
2022-08-19T03:54:15.853Z,52.59
2022-08-19T03:56:44.613Z,52.67
2022-08-19T03:59:18.790Z,52.47
2022-08-19T04:01:46.866Z,52.44
2022-08-19T04:04:14.136Z,50.54
2022-08-19T04:06:42.112Z,49.36
2022-08-19T04:09:14.746Z,48.96
2022-08-19T04:11:47.896Z,48.53
2022-08-19T04:14:21.293Z,48.19
2022-08-19T04:16:49.651Z,49.22
2022-08-19T04:19:19.148Z,49.53
2022-08-19T04:21:49.295Z,49.15
2022-08-19T04:24:19.363Z,49.19
2022-08-19T04:26:47.497Z,49.14
2022-08-19T04:29:23.012Z,49.08
2022-08-19T04:31:50.951Z,49.13
2022-08-19T04:34:25.220Z,48.89
2022-08-19T04:36:54.631Z,48.63
2022-08-19T04:39:49.027Z,48.80
2022-08-19T04:42:37.559Z,47.95
2022-08-19T04:45:12.258Z,47.74
2022-08-19T04:47:47.591Z,47.56
2022-08-19T04:50:26.024Z,47.98
2022-08-19T04:52:53.786Z,47.78
2022-08-19T04:55:21.767Z,46.94
2022-08-19T04:57:49.216Z,46.63
2022-08-19T05:00:16.576Z,46.38
2022-08-19T05:02:43.945Z,46.36
2022-08-19T05:05:11.299Z,46.30
2022-08-19T05:07:38.535Z,46.32
2022-08-19T05:10:09.171Z,46.35
2022-08-19T05:12:37.184Z,46.13
2022-08-19T05:15:06.981Z,46.67
2022-08-19T05:17:38.326Z,47.14
2022-08-19T05:20:28.688Z,47.00
2022-08-19T05:22:55.986Z,47.42
2022-08-19T05:25:23.732Z,47.81
2022-08-19T05:27:51.014Z,47.73
2022-08-19T05:30:33.539Z,47.62
2022-08-19T05:33:12.505Z,47.12
2022-08-19T05:35:40.577Z,47.30
2022-08-19T05:38:09.458Z,46.75
2022-08-19T05:40:39.925Z,46.77
2022-08-19T05:43:10.652Z,46.74
2022-08-19T05:45:43.223Z,46.69
2022-08-19T05:48:14.410Z,46.50
2022-08-19T05:50:43.657Z,46.25
2022-08-19T05:53:10.828Z,47.03
2022-08-19T05:55:39.735Z,47.07
2022-08-19T05:58:08.797Z,47.00
2022-08-19T06:00:38.182Z,47.01
2022-08-19T06:03:11.399Z,47.03
2022-08-19T06:05:49.666Z,47.69
2022-08-19T06:08:19.587Z,47.44
2022-08-19T06:10:46.868Z,47.42
2022-08-19T06:13:13.961Z,47.26
2022-08-19T06:15:42.609Z,47.36
2022-08-19T06:18:09.818Z,47.75
2022-08-19T06:20:54.956Z,47.31
2022-08-19T06:23:24.404Z,47.32
2022-08-19T06:25:51.625Z,47.17
2022-08-19T06:28:20.065Z,47.49
2022-08-19T06:30:47.702Z,47.07
2022-08-19T06:33:14.903Z,46.90
2022-08-19T06:38:12.978Z,46.73
2022-08-19T06:43:12.141Z,46.35
2022-08-19T06:45:41.409Z,46.24
2022-08-19T06:48:08.592Z,46.08
2022-08-19T06:50:39.754Z,46.11
2022-08-19T06:53:09.964Z,45.97
2022-08-19T06:55:37.815Z,46.01
2022-08-19T06:58:06.404Z,45.96
2022-08-19T07:00:35.202Z,46.16
2022-08-19T07:03:06.108Z,45.93
2022-08-19T07:05:45.822Z,45.56
2022-08-19T07:08:14.971Z,45.66
2022-08-19T07:10:47.283Z,45.23
2022-08-19T07:13:15.119Z,45.45
2022-08-19T07:15:42.351Z,45.39
2022-08-19T07:18:11.512Z,45.60
2022-08-19T07:20:42.078Z,45.71
2022-08-19T07:23:15.855Z,45.73
2022-08-19T07:25:44.655Z,45.59
2022-08-19T07:28:24.303Z,45.46
2022-08-19T07:30:53.002Z,45.83
2022-08-19T07:33:20.995Z,45.42
2022-08-19T07:35:48.404Z,45.27
2022-08-19T07:38:16.897Z,44.99
2022-08-19T07:40:47.321Z,45.29
2022-08-19T07:43:17.706Z,45.14
2022-08-19T07:45:46.541Z,45.06
2022-08-19T07:48:13.917Z,45.26
2022-08-19T07:50:42.818Z,45.45
2022-08-19T07:53:10.498Z,45.05
2022-08-19T07:55:43.887Z,45.38
2022-08-19T07:58:14.987Z,45.20
2022-08-19T08:00:44.185Z,44.94
2022-08-19T08:03:12.484Z,45.12
2022-08-19T08:06:01.712Z,44.95
2022-08-19T08:08:44.246Z,45.03
2022-08-19T08:11:16.740Z,44.42
2022-08-19T08:13:46.759Z,43.85
2022-08-19T08:16:31.238Z,43.79
2022-08-19T08:18:58.903Z,43.42
2022-08-19T08:21:26.244Z,42.86
2022-08-19T08:23:57.176Z,42.71
2022-08-19T08:26:27.289Z,41.85
2022-08-19T08:28:56.304Z,41.58
2022-08-19T08:31:26.195Z,41.43
2022-08-19T08:33:53.304Z,40.90
2022-08-19T08:36:20.366Z,39.79
2022-08-19T08:38:48.040Z,39.64
2022-08-19T08:41:32.343Z,38.20
2022-08-19T08:44:00.199Z,38.85
2022-08-19T08:46:54.872Z,36.90
2022-08-19T08:49:37.498Z,36.42
2022-08-19T08:52:12.624Z,36.32
2022-08-19T08:54:49.049Z,35.71
2022-08-19T08:57:38.611Z,34.58
2022-08-19T09:00:16.262Z,34.89
2022-08-19T09:02:44.830Z,34.85
2022-08-19T09:05:22.112Z,34.00
2022-08-19T09:08:13.847Z,32.62
2022-08-19T09:10:56.437Z,32.38
2022-08-19T09:13:53.319Z,32.81
2022-08-19T09:16:27.849Z,32.35
2022-08-19T09:19:08.324Z,31.57
2022-08-19T09:21:35.986Z,31.55
2022-08-19T09:24:05.682Z,30.68
2022-08-19T09:26:47.353Z,30.78
2022-08-19T09:29:19.135Z,30.00
2022-08-19T09:31:46.381Z,29.90
2022-08-19T09:34:20.983Z,29.98
2022-08-19T09:36:54.700Z,28.98
2022-08-19T09:39:23.061Z,28.44
2022-08-19T09:41:51.149Z,28.33
2022-08-19T09:44:19.538Z,27.73
2022-08-19T09:46:48.368Z,27.46
2022-08-19T09:49:18.517Z,28.05
2022-08-19T09:51:50.796Z,27.70
2022-08-19T09:54:23.590Z,27.55
2022-08-19T09:56:54.048Z,26.17
2022-08-19T09:59:22.088Z,26.99
2022-08-19T10:01:49.406Z,27.08
2022-08-19T10:04:20.001Z,26.60
2022-08-19T10:06:53.539Z,25.23
2022-08-19T10:09:26.416Z,25.08
2022-08-19T10:12:02.901Z,26.29
2022-08-19T10:14:30.607Z,28.02
2022-08-19T10:16:59.345Z,26.67
2022-08-19T10:19:27.085Z,27.58
2022-08-19T10:22:00.092Z,26.95
2022-08-19T10:24:29.297Z,26.83
2022-08-19T10:26:59.670Z,25.91
2022-08-19T10:29:32.324Z,25.36
2022-08-19T10:32:02.468Z,24.35
2022-08-19T10:34:32.118Z,24.80
2022-08-19T10:37:02.026Z,24.45
2022-08-19T10:39:42.434Z,24.43
2022-08-19T10:42:14.527Z,24.64
2022-08-19T10:44:43.105Z,25.80
2022-08-19T10:47:17.262Z,25.24
2022-08-19T10:50:11.986Z,25.28
2022-08-19T10:52:49.660Z,24.82
2022-08-19T10:55:39.153Z,25.37
2022-08-19T10:58:12.766Z,25.45
2022-08-19T11:00:45.406Z,25.13
2022-08-19T11:03:13.048Z,26.27
2022-08-19T11:05:42.020Z,26.12
2022-08-19T11:08:23.538Z,26.16
2022-08-19T11:10:59.434Z,25.49
2022-08-19T11:13:38.953Z,25.87
2022-08-19T11:16:14.072Z,25.64
2022-08-19T11:18:54.724Z,26.53
2022-08-19T11:21:43.811Z,25.96
2022-08-19T11:24:33.908Z,26.31
2022-08-19T11:27:53.169Z,27.03
2022-08-19T11:30:26.459Z,26.25
2022-08-19T11:33:03.276Z,26.55
2022-08-19T11:35:40.156Z,26.20
2022-08-19T11:38:11.705Z,26.20
2022-08-19T11:40:48.757Z,26.29
2022-08-19T11:43:20.572Z,26.17
2022-08-19T11:45:49.823Z,25.58
2022-08-19T11:48:17.459Z,26.03
2022-08-19T11:50:44.956Z,25.63
2022-08-19T11:53:12.252Z,25.97
2022-08-19T11:55:43.373Z,25.07
2022-08-19T11:58:18.649Z,25.38
2022-08-19T12:00:46.531Z,25.05
2022-08-19T12:03:15.125Z,25.70
2022-08-19T12:05:43.904Z,26.80
2022-08-19T12:08:16.755Z,26.50
2022-08-19T12:10:45.533Z,26.65
2022-08-19T12:13:16.897Z,27.12
2022-08-19T12:15:44.178Z,27.41
2022-08-19T12:18:11.341Z,27.63
2022-08-19T12:20:40.855Z,28.51
2022-08-19T12:23:12.549Z,29.28
2022-08-19T12:25:51.147Z,30.15
2022-08-19T12:28:23.356Z,29.10
2022-08-19T12:30:53.698Z,29.10
2022-08-19T12:33:26.980Z,30.34
2022-08-19T12:35:54.462Z,29.73
2022-08-19T12:38:25.500Z,30.15
2022-08-19T12:41:00.069Z,30.33
2022-08-19T12:43:28.587Z,29.80
2022-08-19T12:45:57.220Z,29.67
2022-08-19T12:48:33.240Z,28.88
2022-08-19T12:51:03.437Z,30.56
2022-08-19T12:53:30.658Z,29.48
2022-08-19T12:56:01.092Z,28.82
2022-08-19T12:58:30.149Z,29.46
2022-08-19T13:00:59.730Z,29.03
2022-08-19T13:03:30.423Z,29.03
2022-08-19T13:05:57.931Z,30.00
2022-08-19T13:08:25.355Z,29.50
2022-08-19T13:10:52.546Z,29.19
2022-08-19T13:13:21.204Z,29.41
2022-08-19T13:15:48.791Z,29.22
2022-08-19T13:18:16.050Z,29.80
2022-08-19T13:20:52.585Z,29.93
2022-08-19T13:23:20.264Z,29.51
2022-08-19T13:25:58.283Z,29.22
2022-08-19T13:28:29.025Z,28.89
2022-08-19T13:31:20.759Z,28.75
2022-08-19T13:33:48.099Z,29.79
2022-08-19T13:36:15.455Z,29.39
2022-08-19T13:38:42.711Z,29.63
2022-08-19T13:41:14.696Z,29.34
2022-08-19T13:43:42.675Z,29.38
2022-08-19T13:46:16.431Z,29.25
2022-08-19T13:48:44.559Z,29.91
2022-08-19T13:51:11.914Z,29.50
2022-08-19T13:53:41.192Z,29.21
2022-08-19T13:56:13.400Z,29.27
2022-08-19T13:58:41.338Z,29.10
2022-08-19T14:01:10.468Z,29.31
2022-08-19T14:03:39.205Z,29.96
2022-08-19T14:06:07.375Z,29.39
2022-08-19T14:08:36.519Z,29.69
2022-08-19T14:11:06.603Z,29.77
2022-08-19T14:13:35.370Z,29.98
2022-08-19T14:16:02.536Z,30.19
2022-08-19T14:18:30.024Z,30.04
2022-08-19T14:20:58.936Z,31.05
2022-08-19T14:23:26.678Z,31.47
2022-08-19T14:25:54.060Z,31.33
2022-08-19T14:28:21.324Z,31.60
2022-08-19T14:30:56.683Z,32.39
2022-08-19T14:33:28.430Z,32.68
2022-08-19T14:35:59.696Z,33.00
2022-08-19T14:38:31.293Z,32.07
2022-08-19T14:41:17.241Z,32.41
2022-08-19T14:43:50.921Z,33.21
2022-08-19T14:46:21.844Z,33.08
2022-08-19T14:48:50.734Z,33.47
2022-08-19T14:51:21.056Z,33.97
2022-08-19T14:53:51.002Z,33.47
2022-08-19T14:56:22.463Z,34.13
2022-08-19T14:58:53.156Z,34.83
2022-08-19T15:01:22.675Z,33.06
2022-08-19T15:03:51.001Z,34.60
2022-08-19T15:06:18.238Z,34.14
2022-08-19T15:08:46.060Z,34.22
2022-08-19T15:11:19.050Z,35.05
2022-08-19T15:13:47.659Z,35.46
2022-08-19T15:16:18.524Z,34.03
2022-08-19T15:18:48.132Z,34.29
2022-08-19T15:21:26.737Z,35.01
2022-08-19T15:23:57.458Z,34.73
2022-08-19T15:26:27.065Z,36.07
2022-08-19T15:28:54.934Z,36.42
2022-08-19T15:31:28.516Z,36.56
2022-08-19T15:34:00.299Z,37.78
2022-08-19T15:36:28.674Z,36.48
2022-08-19T15:38:57.681Z,36.84
2022-08-19T15:41:28.536Z,36.56
2022-08-19T15:44:01.808Z,36.02
2022-08-19T15:46:34.710Z,35.40
2022-08-19T15:49:02.154Z,37.33
2022-08-19T15:51:31.371Z,37.57
2022-08-19T15:54:00.414Z,37.68
2022-08-19T15:56:47.620Z,37.11
2022-08-19T15:59:47.060Z,36.73
2022-08-19T16:02:34.966Z,36.61
2022-08-19T16:05:24.251Z,36.60
2022-08-19T16:07:52.162Z,36.80
2022-08-19T16:10:19.423Z,35.96
2022-08-19T16:12:58.217Z,35.80
2022-08-19T16:15:31.828Z,36.51
2022-08-19T16:18:02.594Z,37.21
2022-08-19T16:20:30.279Z,36.74
2022-08-19T16:22:58.962Z,36.78
2022-08-19T16:25:30.207Z,36.45
2022-08-19T16:28:06.257Z,37.44
2022-08-19T16:30:39.643Z,37.12
2022-08-19T16:33:08.661Z,36.66
2022-08-19T16:35:36.237Z,37.15
2022-08-19T16:38:03.480Z,37.67
2022-08-19T16:40:30.611Z,37.05
2022-08-19T16:42:58.065Z,37.14
2022-08-19T16:45:25.535Z,37.02
2022-08-19T16:47:52.749Z,37.26
2022-08-19T16:50:45.811Z,37.79
2022-08-19T16:53:10.222Z,38.07
2022-08-19T16:55:37.932Z,37.70
2022-08-19T16:58:05.338Z,37.83
2022-08-19T17:00:32.810Z,38.38
2022-08-19T17:03:14.782Z,37.90
2022-08-19T17:05:47.676Z,37.62
2022-08-19T17:08:22.153Z,37.39
2022-08-19T17:11:16.442Z,37.16
2022-08-19T17:13:39.129Z,37.91
2022-08-19T17:16:07.412Z,38.28
2022-08-19T17:18:34.974Z,38.33
2022-08-19T17:21:02.800Z,38.63
2022-08-19T17:23:42.507Z,38.54
2022-08-19T17:26:15.814Z,38.90
2022-08-19T17:28:49.935Z,38.77
2022-08-19T17:31:21.375Z,39.59
2022-08-19T17:33:49.187Z,39.65
2022-08-19T17:36:18.464Z,39.69
2022-08-19T17:38:45.947Z,39.43
2022-08-19T17:41:13.111Z,39.39
2022-08-19T17:43:43.789Z,39.16
2022-08-19T17:46:18.612Z,39.79
2022-08-19T17:48:52.839Z,39.28
2022-08-19T17:51:32.641Z,39.37
2022-08-19T17:54:00.946Z,39.72
2022-08-19T17:56:28.976Z,39.50
2022-08-19T17:59:00.331Z,39.83
2022-08-19T18:01:43.846Z,40.14
2022-08-19T18:04:20.431Z,39.90
2022-08-19T18:06:53.212Z,39.79
2022-08-19T18:09:41.306Z,39.68
2022-08-19T18:12:12.602Z,39.58
2022-08-19T18:14:40.774Z,39.59
2022-08-19T18:17:14.373Z,39.67
2022-08-19T18:19:43.882Z,39.65
2022-08-19T18:22:35.615Z,40.16
2022-08-19T18:25:06.533Z,40.23
2022-08-19T18:27:33.695Z,40.02
2022-08-19T18:30:01.703Z,40.14
2022-08-19T18:32:34.983Z,40.14
2022-08-19T18:35:03.381Z,40.95
2022-08-19T18:37:30.699Z,40.41
2022-08-19T18:40:16.485Z,40.89
2022-08-19T18:43:04.084Z,41.11
2022-08-19T18:45:53.099Z,41.21
2022-08-19T18:48:38.687Z,41.33
2022-08-19T18:51:06.553Z,41.86
2022-08-19T18:53:38.521Z,41.52
2022-08-19T18:56:08.314Z,41.53
2022-08-19T18:58:38.003Z,41.50
2022-08-19T19:01:18.243Z,42.24
2022-08-19T19:03:49.476Z,41.43
2022-08-19T19:06:25.589Z,41.78
2022-08-19T19:08:55.130Z,42.13
2022-08-19T19:11:30.972Z,42.14
2022-08-19T19:13:58.455Z,41.42
2022-08-19T19:16:25.535Z,41.82
2022-08-19T19:18:53.051Z,41.55
2022-08-19T19:21:23.299Z,42.17
2022-08-19T19:23:52.870Z,42.17
2022-08-19T19:26:21.859Z,41.91
2022-08-19T19:28:49.881Z,41.75
2022-08-19T19:31:20.365Z,42.44
2022-08-19T19:33:47.626Z,42.39
2022-08-19T19:36:14.748Z,42.39
2022-08-19T19:38:48.588Z,41.69
2022-08-19T19:41:19.763Z,42.09
2022-08-19T19:43:47.164Z,42.04
2022-08-19T19:46:16.311Z,42.05
2022-08-19T19:48:48.583Z,42.53
2022-08-19T19:51:15.938Z,42.01
2022-08-19T19:53:43.195Z,42.10
2022-08-19T19:56:10.552Z,42.10
2022-08-19T19:58:37.926Z,42.08
2022-08-19T20:01:08.043Z,42.16
2022-08-19T20:03:36.936Z,42.27
2022-08-19T20:06:04.250Z,42.69
2022-08-19T20:08:49.677Z,42.71
2022-08-19T20:11:31.466Z,42.49
2022-08-19T20:14:01.703Z,42.18
2022-08-19T20:16:31.269Z,42.80
2022-08-19T20:19:00.709Z,42.44
2022-08-19T20:21:33.530Z,42.50
2022-08-19T20:24:09.354Z,42.74
2022-08-19T20:26:38.629Z,42.88
2022-08-19T20:29:13.909Z,42.75
2022-08-19T20:31:59.145Z,42.36
2022-08-19T20:34:27.747Z,43.12
2022-08-19T20:36:54.853Z,42.81
2022-08-19T20:39:21.968Z,43.03
2022-08-19T20:41:49.070Z,42.39
2022-08-19T20:44:16.250Z,42.80
2022-08-19T20:46:55.281Z,42.49
2022-08-19T20:49:27.130Z,42.22
2022-08-19T20:51:56.518Z,42.43
2022-08-19T20:54:24.708Z,42.71
2022-08-19T20:56:53.293Z,42.75
2022-08-19T20:59:24.336Z,42.70
2022-08-19T21:01:54.447Z,43.20
2022-08-19T21:04:22.692Z,43.07
2022-08-19T21:06:50.848Z,43.11
2022-08-19T21:09:18.250Z,43.24
2022-08-19T21:11:45.723Z,43.24
2022-08-19T21:14:13.185Z,43.22
2022-08-19T21:16:40.621Z,43.50
2022-08-19T21:19:07.826Z,42.98
2022-08-19T21:21:35.181Z,43.27
2022-08-19T21:24:02.593Z,43.39
2022-08-19T21:26:29.882Z,43.04
2022-08-19T21:28:57.037Z,43.25
2022-08-19T21:31:24.185Z,43.03
2022-08-19T21:33:51.445Z,43.05
2022-08-19T21:36:18.713Z,43.34
2022-08-19T21:38:45.949Z,42.83
2022-08-19T21:41:13.147Z,42.67
2022-08-19T21:43:40.534Z,43.28
2022-08-19T21:46:08.014Z,43.27
2022-08-19T21:48:35.688Z,43.39
2022-08-19T21:51:02.989Z,42.80
2022-08-19T21:53:31.684Z,43.20
2022-08-19T21:56:01.793Z,42.75
2022-08-19T21:58:30.616Z,43.16
2022-08-19T22:00:59.780Z,43.18
2022-08-19T22:03:27.638Z,42.81
2022-08-19T22:05:55.095Z,42.73
2022-08-19T22:08:22.237Z,43.09
2022-08-19T22:10:49.969Z,42.82
2022-08-19T22:13:21.387Z,42.58
2022-08-19T22:15:52.193Z,42.71
2022-08-19T22:18:19.326Z,42.31
2022-08-19T22:20:47.420Z,42.22
2022-08-19T22:23:15.363Z,42.45
2022-08-19T22:25:45.347Z,42.43
2022-08-19T22:28:18.794Z,42.02
2022-08-19T22:30:51.110Z,42.02
2022-08-19T22:33:19.784Z,41.74
2022-08-19T22:35:47.730Z,41.71
2022-08-19T22:38:18.073Z,41.92
2022-08-19T22:40:48.615Z,42.11
2022-08-19T22:43:30.190Z,42.25
2022-08-19T22:45:58.525Z,42.53
2022-08-19T22:48:30.362Z,42.72
2022-08-19T22:51:17.038Z,42.82
2022-08-19T22:53:46.858Z,42.81
2022-08-19T22:56:17.484Z,42.62
2022-08-19T22:58:46.420Z,42.88
2022-08-19T23:01:27.630Z,42.70
2022-08-19T23:03:59.158Z,43.07
2022-08-19T23:06:33.080Z,43.12
2022-08-19T23:09:01.473Z,42.91
2022-08-19T23:11:32.279Z,42.70
2022-08-19T23:14:02.867Z,42.76
2022-08-19T23:16:31.002Z,43.27
2022-08-19T23:18:58.935Z,42.97
2022-08-19T23:21:26.767Z,43.13
2022-08-19T23:23:54.229Z,43.10
2022-08-19T23:26:21.670Z,43.47
2022-08-19T23:29:07.192Z,43.24
2022-08-19T23:31:36.521Z,43.13
2022-08-19T23:34:04.106Z,43.57
2022-08-19T23:36:34.181Z,43.12
2022-08-19T23:39:03.742Z,43.14
2022-08-19T23:41:31.124Z,43.34
2022-08-19T23:44:05.921Z,43.04
2022-08-19T23:46:54.749Z,43.28
2022-08-19T23:49:23.349Z,43.17
2022-08-19T23:51:50.998Z,43.07
2022-08-19T23:54:18.090Z,43.15
2022-08-19T23:56:45.160Z,43.13
